createdAt,value
2018-04-19T00:01:24.433Z,9.83
2018-04-19T00:03:54.617Z,10.90
2018-04-19T00:06:26.278Z,9.73
2018-04-19T00:08:57.111Z,9.37
2018-04-19T00:11:27.181Z,8.50
2018-04-19T00:13:57.481Z,10.87
2018-04-19T00:16:28.189Z,8.93
2018-04-19T00:18:59.940Z,8.90
2018-04-19T00:21:35.682Z,11.83
2018-04-19T00:24:08.112Z,12.23
2018-04-19T00:26:38.518Z,10.70
2018-04-19T00:29:13.369Z,7.93
2018-04-19T00:31:50.799Z,8.63
2018-04-19T00:34:25.157Z,9.40
2018-04-19T00:36:55.108Z,11.73
2018-04-19T00:39:25.289Z,8.70
2018-04-19T00:41:57.528Z,9.70
2018-04-19T00:44:26.938Z,11.90
2018-04-19T00:46:56.257Z,9.50
2018-04-19T00:49:33.360Z,10.17
2018-04-19T00:52:08.640Z,8.93
2018-04-19T00:54:38.893Z,9.27
2018-04-19T00:57:10.270Z,10.60
2018-04-19T00:59:44.366Z,9.97
2018-04-19T01:02:14.756Z,10.67
2018-04-19T01:04:47.278Z,9.67
2018-04-19T01:07:17.837Z,10.37
2018-04-19T01:09:54.708Z,13.30
2018-04-19T01:12:25.303Z,10.50
2018-04-19T01:15:02.084Z,9.40
2018-04-19T01:17:38.697Z,8.97
2018-04-19T01:20:13.686Z,12.20
2018-04-19T01:23:03.311Z,9.67
2018-04-19T01:25:31.869Z,9.63
2018-04-19T01:28:03.155Z,8.97
2018-04-19T01:30:31.002Z,10.40
2018-04-19T01:32:58.795Z,9.90
2018-04-19T01:35:38.707Z,10.83
2018-04-19T01:38:07.113Z,10.43
2018-04-19T01:40:36.976Z,10.20
2018-04-19T01:43:04.691Z,11.40
2018-04-19T01:45:32.836Z,12.67
2018-04-19T01:48:00.908Z,10.23
2018-04-19T01:50:30.176Z,9.63
2018-04-19T01:53:20.269Z,9.60
2018-04-19T01:55:48.480Z,11.40
2018-04-19T01:58:17.191Z,9.73
2018-04-19T02:00:47.357Z,10.27
2018-04-19T02:03:22.336Z,9.00
2018-04-19T02:05:51.184Z,9.60
2018-04-19T02:08:20.421Z,9.27
2018-04-19T02:10:49.491Z,8.80
2018-04-19T02:13:17.115Z,10.00
2018-04-19T02:15:45.457Z,8.27
2018-04-19T02:18:13.296Z,8.17
2018-04-19T02:20:41.052Z,8.27
2018-04-19T02:23:09.146Z,11.23
2018-04-19T02:25:43.069Z,8.33
2018-04-19T02:28:17.133Z,8.17
2018-04-19T02:30:49.741Z,9.57
2018-04-19T02:33:17.518Z,7.50
2018-04-19T02:35:45.514Z,9.87
2018-04-19T02:38:14.320Z,8.63
2018-04-19T02:40:42.365Z,10.60
2018-04-19T02:43:10.215Z,14.83
2018-04-19T02:45:40.097Z,11.60
2018-04-19T02:48:07.658Z,11.13
2018-04-19T02:50:39.654Z,11.10
2018-04-19T02:53:35.926Z,9.40
2018-04-19T02:56:03.782Z,11.77
2018-04-19T02:58:31.341Z,10.47
2018-04-19T03:01:04.492Z,11.97
2018-04-19T03:03:39.936Z,11.57
2018-04-19T03:06:08.026Z,9.90
2018-04-19T03:08:35.590Z,9.60
2018-04-19T03:11:03.165Z,10.23
2018-04-19T03:13:32.995Z,12.23
2018-04-19T03:16:01.583Z,12.77
2018-04-19T03:18:30.221Z,11.17
2018-04-19T03:20:57.971Z,10.93
2018-04-19T03:23:29.777Z,11.20
2018-04-19T03:26:00.883Z,10.37
2018-04-19T03:28:29.183Z,11.70
2018-04-19T03:30:58.225Z,12.13
2018-04-19T03:33:25.792Z,11.07
2018-04-19T03:36:00.266Z,10.23
2018-04-19T03:38:29.638Z,11.50
2018-04-19T04:03:35.034Z,11.87
2018-04-19T04:06:10.100Z,13.00
2018-04-19T04:08:45.268Z,10.57
2018-04-19T04:11:13.070Z,13.53
2018-04-19T04:13:41.607Z,12.77
2018-04-19T04:16:10.862Z,13.00
2018-04-19T04:18:50.561Z,11.70
2018-04-19T04:21:19.428Z,12.23
2018-04-19T04:23:51.812Z,10.30
2018-04-19T04:26:21.073Z,11.20
2018-04-19T04:28:50.353Z,10.60
2018-04-19T04:31:19.390Z,12.33
2018-04-19T04:33:47.475Z,12.73
2018-04-19T04:36:20.021Z,11.20
2018-04-19T04:38:48.503Z,11.27
2018-04-19T04:41:17.384Z,10.53
2018-04-19T04:43:49.678Z,13.53
2018-04-19T04:46:17.275Z,11.27
2018-04-19T04:48:45.902Z,15.03
2018-04-19T04:51:14.033Z,11.67
2018-04-19T04:53:42.210Z,13.40
2018-04-19T04:56:10.671Z,12.67
2018-04-19T04:58:44.132Z,10.57
2018-04-19T05:01:14.955Z,11.00
2018-04-19T05:03:42.485Z,12.03
2018-04-19T05:06:10.075Z,10.43
2018-04-19T05:08:37.633Z,12.23
2018-04-19T05:11:06.315Z,10.30
2018-04-19T05:13:40.999Z,12.33
2018-04-19T05:16:08.545Z,9.87
2018-04-19T05:18:36.158Z,13.10
2018-04-19T05:21:05.336Z,9.60
2018-04-19T05:23:34.866Z,9.53
2018-04-19T05:26:03.080Z,10.20
2018-04-19T05:28:31.118Z,9.53
2018-04-19T05:31:00.514Z,8.73
2018-04-19T05:33:29.090Z,8.40
2018-04-19T05:35:56.925Z,10.63
2018-04-19T05:38:25.969Z,12.00
2018-04-19T05:40:54.436Z,10.20
2018-04-19T05:43:22.299Z,12.77
2018-04-19T05:45:54.057Z,9.50
2018-04-19T05:48:23.559Z,10.10
2018-04-19T05:50:51.646Z,11.23
2018-04-19T05:53:19.505Z,11.67
2018-04-19T05:56:09.585Z,9.10
2018-04-19T05:58:37.150Z,10.43
2018-04-19T06:01:10.967Z,12.23
2018-04-19T06:03:42.782Z,10.00
2018-04-19T06:06:10.922Z,9.23
2018-04-19T06:08:38.497Z,14.73
2018-04-19T06:11:11.329Z,14.03
2018-04-19T06:13:46.245Z,12.90
2018-04-19T06:16:14.964Z,13.27
2018-04-19T06:18:43.579Z,11.93
2018-04-19T06:21:11.147Z,11.90
2018-04-19T06:23:39.416Z,10.80
2018-04-19T06:26:15.054Z,14.10
2018-04-19T06:28:46.491Z,12.33
2018-04-19T06:31:14.050Z,16.67
2018-04-19T06:33:41.611Z,13.90
2018-04-19T06:36:11.481Z,12.37
2018-04-19T06:38:41.082Z,12.33
2018-04-19T06:41:36.138Z,18.40
2018-04-19T06:44:03.685Z,16.77
2018-04-19T06:46:35.928Z,13.03
2018-04-19T06:49:08.087Z,15.87
2018-04-19T06:51:39.432Z,17.47
2018-04-19T06:54:18.126Z,17.27
2018-04-19T06:56:46.577Z,16.83
2018-04-19T06:59:14.168Z,15.03
2018-04-19T07:01:42.095Z,18.67
2018-04-19T07:04:09.678Z,18.43
2018-04-19T07:06:37.874Z,18.87
2018-04-19T07:09:11.003Z,18.77
2018-04-19T07:11:40.005Z,17.27
2018-04-19T07:14:09.262Z,19.07
2018-04-19T07:16:42.728Z,20.03
2018-04-19T07:19:12.232Z,17.87
2018-04-19T07:21:43.111Z,18.77
2018-04-19T07:24:12.715Z,19.53
2018-04-19T07:26:42.110Z,17.63
2018-04-19T07:29:12.374Z,22.27
2018-04-19T07:31:41.343Z,17.43
2018-04-19T07:34:10.597Z,19.07
2018-04-19T07:36:41.393Z,18.67
2018-04-19T07:39:13.499Z,15.57
2018-04-19T07:41:42.417Z,15.70
2018-04-19T07:44:11.692Z,15.77
2018-04-19T07:46:40.610Z,15.27
2018-04-19T07:49:09.542Z,13.38
2018-04-19T07:51:43.155Z,14.75
2018-04-19T07:54:17.224Z,14.63
2018-04-19T07:56:47.186Z,16.92
2018-04-19T07:59:39.093Z,17.87
2018-04-19T08:02:08.872Z,13.77
2018-04-19T08:04:39.647Z,19.23
2018-04-19T08:07:08.696Z,15.88
2018-04-19T08:09:37.646Z,14.13
2018-04-19T08:12:07.033Z,14.27
2018-04-19T08:14:35.937Z,13.85
2018-04-19T08:17:05.881Z,14.18
2018-04-19T08:19:35.877Z,13.48
2018-04-19T08:22:06.627Z,11.85
2018-04-19T08:24:36.243Z,10.07
2018-04-19T08:27:06.320Z,11.18
2018-04-19T08:29:35.621Z,12.43
2018-04-19T08:32:04.914Z,11.48
2018-04-19T08:34:34.889Z,12.10
2018-04-19T08:37:04.677Z,14.18
2018-04-19T08:39:40.610Z,13.68
2018-04-19T08:42:12.495Z,10.05
2018-04-19T08:44:42.927Z,11.00
2018-04-19T08:47:11.839Z,13.62
2018-04-19T08:49:40.732Z,10.40
2018-04-19T08:52:09.650Z,12.27
2018-04-19T08:54:38.766Z,10.07
2018-04-19T08:57:11.064Z,9.38
2018-04-19T08:59:41.049Z,11.50
2018-04-19T09:02:10.550Z,12.88
2018-04-19T09:04:41.055Z,11.00
2018-04-19T09:07:10.370Z,10.63
2018-04-19T09:09:40.633Z,9.13
2018-04-19T09:12:09.804Z,12.80
2018-04-19T09:14:41.171Z,9.95
2018-04-19T09:17:12.607Z,22.42
2018-04-19T09:19:41.516Z,9.63
2018-04-19T09:22:12.905Z,11.00
2018-04-19T09:24:47.497Z,10.45
2018-04-19T09:27:16.428Z,13.45
2018-04-19T09:29:45.581Z,11.35
2018-04-19T09:32:15.086Z,10.27
2018-04-19T09:44:25.619Z,8.82
2018-04-19T09:46:54.512Z,6.50
2018-04-19T09:49:23.782Z,8.20
2018-04-19T09:51:52.984Z,8.00
2018-04-19T09:54:22.489Z,7.45
2018-04-19T09:56:56.091Z,7.68
2018-04-19T09:59:26.543Z,7.75
2018-04-19T10:02:03.234Z,6.65
2018-04-19T10:04:34.071Z,6.25
2018-04-19T10:07:02.980Z,6.75
2018-04-19T10:09:32.404Z,8.02
2018-04-19T10:12:01.336Z,7.00
2018-04-19T10:14:49.340Z,6.87
2018-04-19T10:17:20.454Z,7.85
2018-04-19T10:19:50.531Z,8.35
2018-04-19T10:22:19.491Z,6.93
2018-04-19T10:24:49.113Z,6.68
2018-04-19T10:27:18.019Z,5.40
2018-04-19T10:29:57.387Z,7.70
2018-04-19T10:32:28.155Z,7.05
2018-04-19T10:35:03.341Z,5.78
2018-04-19T10:37:33.690Z,7.45
2018-04-19T10:40:04.377Z,6.65
2018-04-19T10:42:33.553Z,12.45
2018-04-19T10:45:29.331Z,8.50
2018-04-19T10:48:00.540Z,6.15
2018-04-19T10:50:32.838Z,4.87
2018-04-19T10:53:02.118Z,4.53
2018-04-19T10:55:31.543Z,4.75
2018-04-19T10:58:03.652Z,4.47
2018-04-19T11:00:33.296Z,4.97
2018-04-19T11:03:03.998Z,4.53
2018-04-19T11:05:37.419Z,5.07
2018-04-19T11:08:06.294Z,5.12
2018-04-19T11:10:35.216Z,4.93
2018-04-19T11:13:04.386Z,4.32
2018-04-19T11:15:34.489Z,4.10
2018-04-19T11:18:05.484Z,5.18
2018-04-19T11:20:35.276Z,4.55
2018-04-19T11:23:04.179Z,4.30
2018-04-19T11:25:33.065Z,4.57
2018-04-19T11:28:02.798Z,4.20
2018-04-19T11:30:40.126Z,4.90
2018-04-19T11:33:09.481Z,4.72
2018-04-19T11:35:39.280Z,5.47
2018-04-19T11:38:08.296Z,4.20
2018-04-19T11:40:37.566Z,7.12
2018-04-19T11:43:10.108Z,4.78
2018-04-19T11:45:42.894Z,4.78
2018-04-19T11:48:12.348Z,3.70
2018-04-19T11:50:41.263Z,3.90
2018-04-19T11:53:10.169Z,3.20
2018-04-19T11:55:37.728Z,4.47
2018-04-19T11:58:06.349Z,2.90
2018-04-19T12:00:33.887Z,3.55
2018-04-19T12:03:01.434Z,3.90
2018-04-19T12:05:29.902Z,3.45
2018-04-19T12:07:58.251Z,3.87
2018-04-19T12:10:25.843Z,3.37
2018-04-19T12:12:55.032Z,3.00
2018-04-19T12:15:24.516Z,3.00
2018-04-19T12:17:52.075Z,2.70
2018-04-19T12:20:20.414Z,3.47
2018-04-19T12:22:48.151Z,4.75
2018-04-19T12:25:17.780Z,3.55
2018-04-19T12:27:45.348Z,2.95
2018-04-19T12:30:12.894Z,3.35
2018-04-19T12:32:40.468Z,3.25
2018-04-19T12:35:09.303Z,3.42
2018-04-19T12:37:37.419Z,3.20
2018-04-19T12:40:04.964Z,3.33
2018-04-19T12:42:33.067Z,3.62
2018-04-19T12:45:03.728Z,3.17
2018-04-19T12:47:31.308Z,3.05
2018-04-19T12:50:00.360Z,3.78
2018-04-19T12:52:28.124Z,4.55
2018-04-19T12:54:55.663Z,3.33
2018-04-19T12:57:25.848Z,3.90
2018-04-19T12:59:53.579Z,3.80
2018-04-19T13:06:07.020Z,3.60
2018-04-19T13:08:34.568Z,3.65
2018-04-19T13:11:03.908Z,4.57
2018-04-19T13:13:38.262Z,4.07
2018-04-19T13:16:09.298Z,4.00
2018-04-19T13:18:37.531Z,5.12
2018-04-19T13:21:06.027Z,4.35
2018-04-19T13:23:33.559Z,5.50
2018-04-19T13:26:04.098Z,3.72
2018-04-19T13:28:31.652Z,4.68
2018-04-19T13:30:59.201Z,3.85
2018-04-19T13:33:26.812Z,3.95
2018-04-19T13:35:56.401Z,4.93
2018-04-19T13:38:25.204Z,3.95
2018-04-19T13:40:53.009Z,3.58
2018-04-19T13:43:21.393Z,4.07
2018-04-19T13:45:49.416Z,4.47
2018-04-19T13:48:17.884Z,6.00
2018-04-19T13:50:45.584Z,3.90
2018-04-19T13:53:14.424Z,3.30
2018-04-19T13:55:44.993Z,3.72
2018-04-19T13:58:16.169Z,3.45
2018-04-19T14:00:44.051Z,3.70
2018-04-19T14:03:12.729Z,3.47
2018-04-19T14:05:41.673Z,3.30
2018-04-19T14:08:10.828Z,4.80
2018-04-19T14:10:42.981Z,4.12
2018-04-19T14:13:11.183Z,3.20
2018-04-19T14:15:39.454Z,3.83
2018-04-19T14:18:07.848Z,3.40
2018-04-19T14:20:39.023Z,3.53
2018-04-19T14:23:07.100Z,3.40
2018-04-19T14:25:34.864Z,3.62
2018-04-19T14:28:03.615Z,3.37
2018-04-19T14:30:31.410Z,3.65
2018-04-19T14:32:59.247Z,3.12
2018-04-19T14:35:26.808Z,3.75
2018-04-19T14:37:56.355Z,3.35
2018-04-19T14:40:24.594Z,3.65
2018-04-19T14:42:52.918Z,4.50
2018-04-19T14:45:24.742Z,3.80
2018-04-19T14:47:56.031Z,3.30
2018-04-19T14:53:47.522Z,3.83
2018-04-19T14:56:15.087Z,3.10
2018-04-19T14:58:44.924Z,3.40
2018-04-19T15:01:13.772Z,3.72
2018-04-19T15:03:43.452Z,3.17
2018-04-19T15:06:11.794Z,3.55
2018-04-19T15:08:44.284Z,3.37
2018-04-19T15:11:19.000Z,3.25
2018-04-19T15:13:49.173Z,3.60
2018-04-19T15:16:17.003Z,4.93
2018-04-19T15:19:06.089Z,3.75
2018-04-19T15:21:35.646Z,3.80
2018-04-19T15:24:04.975Z,5.22
2018-04-19T15:26:37.849Z,3.67
2018-04-19T15:29:10.627Z,4.07
2018-04-19T15:31:43.223Z,3.37
2018-04-19T15:34:15.068Z,3.85
2018-04-19T15:36:43.635Z,3.53
2018-04-19T15:39:12.511Z,3.95
2018-04-19T15:41:40.868Z,4.00
2018-04-19T15:44:09.462Z,4.87
2018-04-19T15:46:39.135Z,3.75
2018-04-19T15:49:06.805Z,3.83
2018-04-19T15:51:35.442Z,3.42
2018-04-19T15:54:04.787Z,5.55
2018-04-19T15:56:39.053Z,5.07
2018-04-19T15:59:11.466Z,3.97
2018-04-19T16:01:40.556Z,4.07
2018-04-19T16:04:38.973Z,4.30
2018-04-19T16:07:06.880Z,5.75
2018-04-19T16:09:35.027Z,3.90
2018-04-19T16:12:02.632Z,3.45
2018-04-19T16:14:30.908Z,4.57
2018-04-19T16:16:58.758Z,5.22
2018-04-19T16:19:34.769Z,3.70
2018-04-19T16:22:02.752Z,3.90
2018-04-19T16:24:30.759Z,4.15
2018-04-19T16:26:58.344Z,3.75
2018-04-19T16:29:27.075Z,5.87
2018-04-19T16:31:59.904Z,3.83
2018-04-19T16:34:46.222Z,4.07
2018-04-19T16:37:16.859Z,4.00
2018-04-19T16:39:51.220Z,4.05
2018-04-19T16:42:18.797Z,4.45
2018-04-19T16:44:47.187Z,3.72
2018-04-19T16:47:14.868Z,3.90
2018-04-19T16:49:44.903Z,3.95
2018-04-19T16:52:12.490Z,5.62
2018-04-19T16:54:40.809Z,4.20
2018-04-19T16:57:08.378Z,4.95
2018-04-19T16:59:43.907Z,4.20
2018-04-19T17:02:18.592Z,4.20
2018-04-19T17:07:30.740Z,3.42
2018-04-19T17:09:58.643Z,4.50
2018-04-19T17:12:29.150Z,3.95
2018-04-19T17:14:57.382Z,4.90
2018-04-19T17:17:26.213Z,4.70
2018-04-19T17:20:01.527Z,4.95
2018-04-19T17:22:32.813Z,4.40
2018-04-19T17:25:00.650Z,4.85
2018-04-19T17:27:30.084Z,5.00
2018-04-19T17:29:58.897Z,5.18
2018-04-19T17:32:28.625Z,5.25
2018-04-19T17:34:57.176Z,5.25
2018-04-19T17:37:27.565Z,5.53
2018-04-19T17:39:57.199Z,7.53
2018-04-19T17:42:24.822Z,5.78
2018-04-19T17:44:53.744Z,5.28
2018-04-19T17:47:21.302Z,6.03
2018-04-19T17:49:49.363Z,3.83
2018-04-19T17:52:18.091Z,4.25
2018-04-19T17:54:46.984Z,4.97
2018-04-19T17:57:14.571Z,4.10
2018-04-19T17:59:42.680Z,3.58
2018-04-19T18:02:10.450Z,3.92
2018-04-19T18:04:40.962Z,3.55
2018-04-19T18:07:16.760Z,4.47
2018-04-19T18:09:46.999Z,4.65
2018-04-19T18:12:17.964Z,4.03
2018-04-19T18:14:45.546Z,4.22
2018-04-19T18:17:14.360Z,5.20
2018-04-19T18:19:49.925Z,4.05
2018-04-19T18:22:19.105Z,4.05
2018-04-19T18:24:46.718Z,3.97
2018-04-19T18:27:15.665Z,3.87
2018-04-19T18:29:45.689Z,4.05
2018-04-19T18:32:21.437Z,4.18
2018-04-19T18:34:49.134Z,3.70
2018-04-19T18:37:22.034Z,6.37
2018-04-19T18:39:49.604Z,5.18
2018-04-19T18:42:19.563Z,4.20
2018-04-19T18:44:53.288Z,4.37
2018-04-19T18:47:21.611Z,4.80
2018-04-19T18:49:49.212Z,5.85
2018-04-19T18:52:17.808Z,4.43
2018-04-19T18:54:47.347Z,4.25
2018-04-19T18:57:15.578Z,4.50
2018-04-19T18:59:43.765Z,4.45
2018-04-19T19:02:12.087Z,4.57
2018-04-19T19:04:46.737Z,4.20
2018-04-19T19:07:36.794Z,4.82
2018-04-19T19:10:04.925Z,4.72
2018-04-19T19:12:34.979Z,4.45
2018-04-19T19:15:06.705Z,4.68
2018-04-19T19:17:46.803Z,4.28
2018-04-19T19:20:15.635Z,4.97
2018-04-19T19:22:43.464Z,4.97
2018-04-19T19:25:11.018Z,5.00
2018-04-19T19:27:44.103Z,7.00
2018-04-19T19:30:11.710Z,5.57
2018-04-19T19:32:40.432Z,6.57
2018-04-19T19:35:08.829Z,5.45
2018-04-19T19:37:36.918Z,5.45
2018-04-19T19:40:04.530Z,4.68
2018-04-19T19:42:32.381Z,5.15
2018-04-19T19:44:59.997Z,7.30
2018-04-19T19:47:27.554Z,7.07
2018-04-19T19:50:02.820Z,6.53
2018-04-19T19:52:37.505Z,5.28
2018-04-19T19:55:29.382Z,5.33
2018-04-19T19:57:57.099Z,5.22
2018-04-19T20:00:24.663Z,5.57
2018-04-19T20:02:56.692Z,8.17
2018-04-19T20:05:29.908Z,5.83
2018-04-19T20:07:58.033Z,5.83
2018-04-19T20:10:26.325Z,6.70
2018-04-19T20:12:54.043Z,6.43
2018-04-19T20:15:21.634Z,5.93
2018-04-19T20:17:58.241Z,7.10
2018-04-19T20:20:33.192Z,7.90
2018-04-19T20:23:04.673Z,6.33
2018-04-19T20:25:54.091Z,7.50
2018-04-19T20:28:23.166Z,6.83
2018-04-19T20:30:51.208Z,7.30
2018-04-19T20:33:26.068Z,7.50
2018-04-19T20:35:56.493Z,7.20
2018-04-19T20:38:24.049Z,7.43
2018-04-19T20:41:12.852Z,7.37
2018-04-19T20:43:43.755Z,7.57
2018-04-19T20:46:14.209Z,6.20
2018-04-19T20:48:42.621Z,7.57
2018-04-19T20:51:10.580Z,6.70
2018-04-19T20:53:39.383Z,7.63
2018-04-19T20:56:09.947Z,8.90
2018-04-19T20:58:42.285Z,7.70
2018-04-19T21:01:15.270Z,6.97
2018-04-19T21:03:44.584Z,7.07
2018-04-19T21:06:12.348Z,7.37
2018-04-19T21:08:40.490Z,6.90
2018-04-19T21:11:09.371Z,8.00
2018-04-19T21:13:43.954Z,8.03
2018-04-19T21:16:11.752Z,8.10
2018-04-19T21:18:39.435Z,6.77
2018-04-19T21:21:07.043Z,7.03
2018-04-19T21:23:34.623Z,6.60
2018-04-19T21:26:03.691Z,6.90
2018-04-19T21:28:33.861Z,6.50
2018-04-19T21:31:04.325Z,6.40
2018-04-19T21:33:36.958Z,6.77
2018-04-19T21:36:05.583Z,6.70
2018-04-19T21:38:33.535Z,7.40
2018-04-19T21:41:02.671Z,6.83
2018-04-19T21:43:35.672Z,7.13
2018-04-19T21:46:09.378Z,6.90
2018-04-19T21:48:42.024Z,7.50
2018-04-19T21:51:18.063Z,7.00
2018-04-19T21:53:48.014Z,6.47
2018-04-19T21:56:16.424Z,6.57
2018-04-19T21:58:45.020Z,6.13
2018-04-19T22:01:12.763Z,6.20
2018-04-19T22:03:43.714Z,6.57
2018-04-19T22:06:16.117Z,6.90
2018-04-19T22:08:51.574Z,6.90
2018-04-19T22:11:25.590Z,7.67
2018-04-19T22:14:00.540Z,6.87
2018-04-19T22:16:34.619Z,6.57
2018-04-19T22:19:10.632Z,8.70
2018-04-19T22:21:43.656Z,7.40
2018-04-19T22:24:19.829Z,7.53
2018-04-19T22:27:08.655Z,6.90
2018-04-19T22:29:41.805Z,7.57
2018-04-19T22:32:09.612Z,7.27
2018-04-19T22:34:40.611Z,8.73
2018-04-19T22:37:08.498Z,7.37
2018-04-19T22:39:36.559Z,7.73
2018-04-19T22:42:04.162Z,8.07
2018-04-19T22:44:34.956Z,7.30
2018-04-19T22:47:03.615Z,7.67
2018-04-19T22:49:38.231Z,7.83
2018-04-19T22:52:06.598Z,7.33
2018-04-19T22:54:35.631Z,7.30
2018-04-19T22:57:20.490Z,8.00
2018-04-19T22:59:48.258Z,7.80
2018-04-19T23:02:16.316Z,8.57
2018-04-19T23:04:46.060Z,7.90
2018-04-19T23:07:16.275Z,7.43
2018-04-19T23:09:44.300Z,9.57
2018-04-19T23:12:13.154Z,8.37
2018-04-19T23:14:41.481Z,8.63
2018-04-19T23:17:09.072Z,7.97
2018-04-19T23:19:43.271Z,8.17
2018-04-19T23:22:12.924Z,8.40
2018-04-19T23:24:41.631Z,8.97
2018-04-19T23:27:09.717Z,8.50
2018-04-19T23:29:37.308Z,9.43
2018-04-19T23:32:08.821Z,9.17
2018-04-19T23:34:40.127Z,8.40
2018-04-19T23:37:07.696Z,8.67
2018-04-19T23:39:37.573Z,8.80
2018-04-19T23:42:05.951Z,8.67
2018-04-19T23:44:33.903Z,9.03
2018-04-19T23:47:06.764Z,9.73
2018-04-19T23:49:41.343Z,9.07
2018-04-19T23:52:11.734Z,8.60
2018-04-19T23:54:40.041Z,9.13
2018-04-19T23:57:12.732Z,10.47
2018-04-19T23:59:41.685Z,10.00
